createdAt,value
2022-12-12T00:01:23.345Z,6.50
2022-12-12T00:03:53.284Z,6.60
2022-12-12T00:06:34.345Z,6.40
2022-12-12T00:09:02.348Z,6.10
2022-12-12T00:11:32.406Z,5.90
2022-12-12T00:14:21.447Z,6.00
2022-12-12T00:16:49.278Z,6.20
2022-12-12T00:19:18.489Z,6.00
2022-12-12T00:21:49.808Z,5.80
2022-12-12T00:24:20.448Z,5.70
2022-12-12T00:26:51.443Z,6.00
2022-12-12T00:29:25.643Z,6.30
2022-12-12T00:31:53.498Z,6.10
2022-12-12T00:34:22.744Z,6.00
2022-12-12T00:36:53.772Z,6.10
2022-12-12T00:39:24.748Z,6.30
2022-12-12T00:41:54.501Z,6.40
2022-12-12T00:44:22.406Z,6.00
2022-12-12T00:46:50.379Z,5.90
2022-12-12T00:49:18.294Z,6.30
2022-12-12T00:51:53.581Z,6.50
2022-12-12T00:54:21.427Z,6.10
2022-12-12T00:56:49.301Z,5.90
2022-12-12T00:59:17.348Z,5.90
2022-12-12T01:01:46.434Z,6.20
2022-12-12T01:04:14.394Z,6.30
2022-12-12T01:06:42.298Z,6.00
2022-12-12T01:09:11.508Z,5.90
2022-12-12T01:11:39.433Z,6.10
2022-12-12T01:14:10.286Z,6.70
2022-12-12T01:16:38.245Z,7.30
2022-12-12T01:19:09.418Z,7.40
2022-12-12T01:21:38.071Z,7.00
2022-12-12T01:24:06.429Z,7.20
2022-12-12T01:26:50.853Z,7.70
2022-12-12T01:29:18.732Z,7.60
2022-12-12T01:31:51.708Z,7.30
2022-12-12T01:34:19.569Z,7.30
2022-12-12T01:36:52.478Z,7.80
2022-12-12T01:39:26.283Z,8.20
2022-12-12T01:42:13.746Z,8.00
2022-12-12T01:44:47.176Z,7.80
2022-12-12T01:47:20.327Z,7.60
2022-12-12T01:49:52.198Z,7.80
2022-12-12T01:52:23.624Z,7.70
2022-12-12T01:54:58.800Z,7.20
2022-12-12T01:57:34.041Z,7.00
2022-12-12T02:00:03.545Z,7.50
2022-12-12T02:02:31.582Z,7.80
2022-12-12T02:05:03.574Z,7.30
2022-12-12T02:07:43.910Z,6.90
2022-12-12T02:10:11.822Z,6.80
2022-12-12T02:12:43.416Z,7.00
2022-12-12T02:15:15.055Z,6.90
2022-12-12T02:18:09.818Z,6.50
2022-12-12T02:21:05.953Z,6.20
2022-12-12T02:24:10.552Z,6.50
2022-12-12T02:27:16.834Z,6.60
2022-12-12T02:30:11.872Z,6.40
2022-12-12T02:32:59.426Z,6.30
2022-12-12T02:35:54.941Z,6.70
2022-12-12T02:38:38.221Z,6.70
2022-12-12T02:41:16.393Z,6.40
2022-12-12T02:47:00.461Z,6.60
2022-12-12T02:49:36.454Z,6.90
2022-12-12T02:52:05.579Z,6.60
2022-12-12T02:54:39.564Z,6.30
2022-12-12T02:57:19.215Z,6.30
2022-12-12T02:59:51.447Z,6.80
2022-12-12T03:02:50.773Z,6.50
2022-12-12T03:05:58.653Z,6.30
2022-12-12T03:08:41.548Z,6.20
2022-12-12T03:11:13.800Z,6.30
2022-12-12T03:13:57.260Z,6.20
2022-12-12T03:16:28.607Z,6.00
2022-12-12T03:19:01.186Z,6.00
2022-12-12T03:21:56.750Z,6.20
2022-12-12T03:24:31.853Z,6.10
2022-12-12T03:27:08.394Z,5.80
2022-12-12T03:29:40.977Z,5.90
2022-12-12T03:32:13.413Z,6.20
2022-12-12T03:34:44.825Z,6.10
2022-12-12T03:37:19.535Z,5.70
2022-12-12T03:39:50.664Z,5.40
2022-12-12T03:42:35.892Z,5.30
2022-12-12T03:45:14.075Z,5.30
2022-12-12T03:47:50.090Z,5.00
2022-12-12T03:50:21.676Z,5.00
2022-12-12T03:52:58.122Z,5.20
2022-12-12T03:55:30.390Z,5.40
2022-12-12T03:58:01.177Z,5.00
2022-12-12T04:00:33.673Z,5.00
2022-12-12T04:03:16.955Z,4.90
2022-12-12T04:06:10.951Z,4.70
2022-12-12T04:09:03.339Z,4.10
2022-12-12T04:12:05.998Z,4.10
2022-12-12T04:14:52.535Z,5.10
2022-12-12T04:17:34.323Z,5.30
2022-12-12T04:20:28.851Z,5.40
2022-12-12T04:23:18.389Z,5.80
2022-12-12T04:26:16.794Z,6.70
2022-12-12T04:28:54.512Z,7.40
2022-12-12T04:31:28.783Z,7.70
2022-12-12T04:34:02.895Z,8.00
2022-12-12T04:36:33.320Z,8.20
2022-12-12T04:39:06.181Z,7.70
2022-12-12T04:41:39.963Z,7.70
2022-12-12T04:44:11.382Z,8.00
2022-12-12T04:46:41.718Z,7.60
2022-12-12T04:49:19.057Z,6.80
2022-12-12T04:51:51.085Z,6.60
2022-12-12T04:54:30.682Z,6.60
2022-12-12T04:57:02.510Z,6.30
2022-12-12T04:59:33.194Z,6.20
2022-12-12T05:02:09.395Z,6.50
2022-12-12T05:04:44.919Z,6.30
2022-12-12T05:07:22.393Z,5.50
2022-12-12T05:09:50.802Z,5.30
2022-12-12T05:12:45.523Z,5.90
2022-12-12T05:15:15.062Z,6.00
2022-12-12T05:17:57.506Z,5.90
2022-12-12T05:20:25.419Z,6.30
2022-12-12T05:22:59.305Z,6.90
2022-12-12T05:25:29.989Z,7.20
2022-12-12T05:28:01.869Z,7.40
2022-12-12T05:30:29.844Z,7.80
2022-12-12T05:32:57.773Z,8.10
2022-12-12T05:35:25.872Z,8.20
2022-12-12T05:37:56.489Z,8.40
2022-12-12T05:40:24.389Z,8.60
2022-12-12T05:42:55.469Z,8.50
2022-12-12T05:45:27.230Z,8.60
2022-12-12T05:47:55.081Z,8.40
2022-12-12T05:50:26.157Z,8.10
2022-12-12T05:52:56.859Z,8.20
2022-12-12T05:55:32.052Z,8.20
2022-12-12T05:57:59.910Z,8.30
2022-12-12T06:00:31.078Z,8.30
2022-12-12T06:02:59.100Z,8.30
2022-12-12T06:05:27.010Z,7.70
2022-12-12T06:07:54.935Z,7.20
2022-12-12T06:10:25.023Z,6.80
2022-12-12T06:12:55.724Z,6.40
2022-12-12T06:15:23.614Z,6.10
2022-12-12T06:18:01.931Z,6.10
2022-12-12T06:20:30.508Z,6.50
2022-12-12T06:23:04.701Z,6.80
2022-12-12T06:25:35.719Z,6.70
2022-12-12T06:28:09.631Z,7.10
2022-12-12T06:30:37.496Z,7.40
2022-12-12T06:33:06.945Z,7.10
2022-12-12T06:35:34.816Z,7.30
2022-12-12T06:38:11.640Z,7.50
2022-12-12T06:40:40.903Z,7.20
2022-12-12T06:43:09.556Z,7.30
2022-12-12T06:45:40.256Z,7.60
2022-12-12T06:48:09.533Z,6.90
2022-12-12T06:50:41.090Z,7.10
2022-12-12T06:53:24.430Z,7.90
2022-12-12T06:55:52.333Z,7.90
2022-12-12T06:58:20.224Z,7.60
2022-12-12T07:01:00.021Z,7.50
2022-12-12T07:03:29.262Z,7.60
2022-12-12T07:05:57.144Z,7.10
2022-12-12T07:08:25.046Z,6.70
2022-12-12T07:10:52.937Z,7.10
2022-12-12T07:13:24.307Z,7.50
2022-12-12T07:15:52.212Z,7.90
2022-12-12T07:18:20.157Z,8.20
2022-12-12T07:20:49.380Z,8.50
2022-12-12T07:23:20.317Z,8.40
2022-12-12T07:25:48.195Z,7.80
2022-12-12T07:28:16.659Z,7.30
2022-12-12T07:30:49.261Z,7.30
2022-12-12T07:33:18.245Z,7.60
2022-12-12T07:35:46.228Z,7.60
2022-12-12T07:38:32.926Z,7.20
2022-12-12T07:41:05.291Z,7.30
2022-12-12T07:43:44.907Z,7.50
2022-12-12T07:46:15.703Z,7.50
2022-12-12T07:48:49.910Z,7.50
2022-12-12T07:51:18.433Z,7.70
2022-12-12T07:53:47.955Z,7.70
2022-12-12T07:56:17.029Z,8.10
2022-12-12T07:58:48.413Z,8.60
2022-12-12T08:01:19.320Z,8.50
2022-12-12T08:03:48.854Z,8.60
2022-12-12T08:06:21.352Z,8.70
2022-12-12T08:08:51.864Z,9.00
2022-12-12T08:11:25.547Z,9.20
2022-12-12T08:13:53.911Z,9.00
2022-12-12T08:16:24.478Z,8.80
2022-12-12T08:18:55.018Z,8.20
2022-12-12T08:21:26.239Z,8.40
2022-12-12T08:23:58.452Z,8.60
2022-12-12T08:26:27.037Z,8.80
2022-12-12T08:28:55.381Z,8.90
2022-12-12T08:31:24.072Z,9.00
2022-12-12T08:33:52.984Z,9.20
2022-12-12T08:36:23.178Z,9.50
2022-12-12T08:38:51.966Z,9.30
2022-12-12T08:41:25.086Z,9.20
2022-12-12T08:43:53.136Z,9.50
2022-12-12T08:46:24.141Z,9.70
2022-12-12T08:48:52.142Z,9.30
2022-12-12T08:51:26.276Z,9.10
2022-12-12T08:53:54.832Z,9.10
2022-12-12T08:56:25.568Z,9.40
2022-12-12T08:58:53.699Z,9.40
2022-12-12T09:01:24.371Z,9.20
2022-12-12T09:03:54.650Z,9.40
2022-12-12T09:06:23.320Z,9.50
2022-12-12T09:08:51.581Z,9.70
2022-12-12T09:11:19.761Z,9.90
2022-12-12T09:13:52.382Z,10.00
2022-12-12T09:16:22.020Z,10.10
2022-12-12T09:18:53.290Z,10.10
2022-12-12T09:21:24.285Z,10.10
2022-12-12T09:23:57.446Z,10.20
2022-12-12T09:26:26.228Z,10.40
2022-12-12T09:28:55.597Z,10.40
2022-12-12T09:31:23.574Z,10.40
2022-12-12T09:33:54.967Z,10.20
2022-12-12T09:36:22.941Z,10.30
2022-12-12T09:38:50.889Z,10.30
2022-12-12T09:41:20.834Z,10.30
2022-12-12T09:44:02.435Z,10.30
2022-12-12T09:46:35.388Z,10.40
2022-12-12T09:49:13.375Z,10.40
2022-12-12T09:51:43.302Z,10.50
2022-12-12T09:54:14.459Z,10.50
2022-12-12T09:57:09.162Z,10.50
2022-12-12T09:59:45.087Z,10.60
2022-12-12T10:02:34.690Z,10.50
2022-12-12T10:05:07.826Z,10.60
2022-12-12T10:07:40.372Z,10.00
2022-12-12T10:10:18.190Z,10.00
2022-12-12T10:12:47.662Z,9.40
2022-12-12T10:15:29.641Z,9.50
2022-12-12T10:17:59.762Z,9.60
2022-12-12T10:20:30.584Z,10.10
2022-12-12T10:23:06.351Z,10.00
2022-12-12T10:25:42.118Z,9.80
2022-12-12T10:28:13.687Z,9.70
2022-12-12T10:30:56.231Z,10.40
2022-12-12T10:33:32.109Z,10.80
2022-12-12T10:36:08.460Z,10.90
2022-12-12T10:38:59.095Z,11.10
2022-12-12T10:41:41.092Z,11.30
2022-12-12T10:44:32.975Z,11.50
2022-12-12T10:47:05.885Z,11.60
2022-12-12T10:49:34.874Z,11.70
2022-12-12T10:52:05.840Z,11.60
2022-12-12T10:54:45.268Z,11.70
2022-12-12T10:57:20.248Z,12.00
2022-12-12T10:59:49.729Z,12.30
2022-12-12T11:02:31.192Z,12.50
2022-12-12T11:05:02.218Z,12.40
2022-12-12T11:07:37.110Z,12.30
2022-12-12T11:10:22.831Z,12.20
2022-12-12T11:12:57.825Z,12.20
2022-12-12T11:15:32.289Z,12.00
2022-12-12T11:18:08.106Z,11.90
2022-12-12T11:20:36.029Z,12.10
2022-12-12T11:23:04.355Z,12.20
2022-12-12T11:25:34.290Z,12.20
2022-12-12T11:28:06.904Z,12.20
2022-12-12T11:30:38.780Z,12.60
2022-12-12T11:33:10.051Z,12.60
2022-12-12T11:35:47.086Z,12.70
2022-12-12T11:38:27.140Z,13.00
2022-12-12T11:41:01.964Z,13.10
2022-12-12T11:43:31.648Z,13.20
2022-12-12T11:46:01.790Z,13.20
2022-12-12T11:48:41.315Z,12.90
2022-12-12T11:51:09.571Z,12.80
2022-12-12T11:53:42.244Z,12.40
2022-12-12T11:56:27.576Z,12.50
2022-12-12T11:59:24.992Z,12.20
2022-12-12T12:02:02.994Z,12.20
2022-12-12T12:04:49.602Z,12.00
2022-12-12T12:07:34.081Z,12.00
2022-12-12T12:10:22.546Z,12.10
2022-12-12T12:13:14.286Z,12.30
2022-12-12T12:15:50.836Z,12.30
2022-12-12T12:18:39.113Z,12.40
2022-12-12T12:21:28.250Z,12.40
2022-12-12T12:24:19.986Z,12.40
2022-12-12T12:27:00.747Z,12.30
2022-12-12T12:29:49.348Z,12.00
2022-12-12T12:32:26.970Z,12.10
2022-12-12T12:35:09.045Z,12.20
2022-12-12T12:37:48.032Z,12.30
2022-12-12T12:40:31.098Z,12.40
2022-12-12T12:43:16.824Z,12.50
2022-12-12T12:45:49.844Z,12.70
2022-12-12T12:48:23.576Z,12.90
2022-12-12T12:51:07.073Z,13.00
2022-12-12T12:53:44.305Z,13.10
2022-12-12T12:56:25.996Z,13.20
2022-12-12T12:58:57.756Z,13.20
2022-12-12T13:01:30.336Z,13.20
2022-12-12T13:04:03.764Z,13.10
2022-12-12T13:06:45.352Z,12.90
2022-12-12T13:09:36.849Z,12.80
2022-12-12T13:12:14.807Z,12.60
2022-12-12T13:14:47.105Z,12.50
2022-12-12T13:17:19.333Z,12.80
2022-12-12T13:19:50.702Z,13.00
2022-12-12T13:22:29.733Z,13.00
2022-12-12T13:25:09.514Z,13.10
2022-12-12T13:27:47.834Z,13.10
2022-12-12T13:30:23.260Z,12.80
2022-12-12T13:33:21.250Z,12.70
2022-12-12T13:36:02.789Z,12.70
2022-12-12T13:38:34.976Z,12.40
2022-12-12T13:41:09.910Z,12.30
2022-12-12T13:44:03.821Z,12.20
2022-12-12T13:46:38.463Z,11.60
2022-12-12T13:49:19.890Z,11.40
2022-12-12T13:51:53.404Z,11.40
2022-12-12T13:54:46.552Z,11.60
2022-12-12T13:57:26.372Z,11.20
2022-12-12T14:00:27.703Z,11.60
2022-12-12T14:03:28.086Z,11.90
2022-12-12T14:06:11.519Z,11.90
2022-12-12T14:08:49.433Z,12.20
2022-12-12T14:11:31.687Z,12.30
2022-12-12T14:14:23.465Z,12.50
2022-12-12T14:17:04.433Z,12.30
2022-12-12T14:19:38.313Z,11.60
2022-12-12T14:22:06.251Z,11.60
2022-12-12T14:25:04.639Z,11.70
2022-12-12T14:28:15.797Z,11.20
2022-12-12T14:30:56.234Z,11.30
2022-12-12T14:33:56.367Z,11.00
2022-12-12T14:37:00.914Z,10.30
2022-12-12T14:39:59.745Z,10.60
2022-12-12T14:43:20.567Z,10.60
2022-12-12T14:45:42.630Z,10.20
2022-12-12T14:48:17.393Z,10.50
2022-12-12T14:51:09.061Z,10.50
2022-12-12T14:53:45.957Z,10.20
2022-12-12T14:56:16.147Z,9.70
2022-12-12T14:58:50.534Z,9.10
2022-12-12T15:01:31.006Z,8.60
2022-12-12T15:04:05.115Z,8.40
2022-12-12T15:06:36.274Z,8.30
2022-12-12T15:09:19.297Z,8.40
2022-12-12T15:11:48.185Z,8.40
2022-12-12T15:14:25.503Z,8.40
2022-12-12T15:17:01.138Z,8.60
2022-12-12T15:19:33.614Z,9.20
2022-12-12T15:22:03.781Z,9.40
2022-12-12T15:24:40.339Z,9.10
2022-12-12T15:27:08.655Z,8.60
2022-12-12T15:29:42.477Z,8.40
2022-12-12T15:32:20.268Z,9.00
2022-12-12T15:35:02.020Z,9.60
2022-12-12T15:37:31.771Z,10.20
2022-12-12T15:40:26.309Z,10.60
2022-12-12T15:42:56.789Z,10.90
2022-12-12T15:45:30.255Z,10.50
2022-12-12T15:48:01.553Z,10.70
2022-12-12T15:50:35.702Z,11.00
2022-12-12T15:53:07.365Z,11.00
2022-12-12T15:55:36.157Z,11.10
2022-12-12T15:58:07.025Z,11.20
2022-12-12T16:00:40.362Z,10.50
2022-12-12T16:03:23.717Z,9.60
2022-12-12T16:06:14.963Z,8.60
2022-12-12T16:08:49.862Z,8.70
2022-12-12T16:11:33.602Z,9.30
2022-12-12T16:14:05.077Z,9.40
2022-12-12T16:16:43.585Z,8.80
2022-12-12T16:19:42.798Z,8.50
2022-12-12T16:22:29.085Z,9.10
2022-12-12T16:25:18.016Z,9.50
2022-12-12T16:27:51.016Z,9.30
2022-12-12T16:30:21.826Z,8.90
2022-12-12T16:32:49.756Z,8.90
2022-12-12T16:35:19.234Z,9.10
2022-12-12T16:37:49.057Z,9.30
2022-12-12T16:40:21.147Z,9.00
2022-12-12T16:42:55.766Z,9.00
2022-12-12T16:45:26.549Z,9.60
2022-12-12T16:47:55.188Z,10.20
2022-12-12T16:50:29.076Z,10.80
2022-12-12T16:53:04.978Z,10.90
2022-12-12T16:55:35.091Z,11.20
2022-12-12T16:58:02.953Z,11.20
2022-12-12T17:00:30.771Z,10.60
2022-12-12T17:02:58.622Z,9.60
2022-12-12T17:05:29.675Z,9.50
2022-12-12T17:07:57.783Z,9.70
2022-12-12T17:10:27.187Z,9.60
2022-12-12T17:12:55.413Z,9.00
2022-12-12T17:15:25.838Z,8.70
2022-12-12T17:17:55.714Z,9.00
2022-12-12T17:20:27.316Z,9.40
2022-12-12T17:26:02.485Z,9.80
2022-12-12T17:28:32.556Z,9.40
2022-12-12T17:31:08.162Z,9.20
2022-12-12T17:33:42.334Z,9.40
2022-12-12T17:36:18.459Z,9.60
2022-12-12T17:38:46.756Z,9.60
2022-12-12T17:41:16.179Z,9.60
2022-12-12T17:43:44.045Z,9.30
2022-12-12T17:46:15.053Z,9.00
2022-12-12T17:48:45.866Z,9.20
2022-12-12T17:51:18.745Z,9.70
2022-12-12T17:53:47.021Z,8.70
2022-12-12T17:56:18.561Z,8.30
2022-12-12T17:58:48.168Z,8.00
2022-12-12T18:01:18.730Z,7.60
2022-12-12T18:03:46.884Z,7.50
2022-12-12T18:06:22.316Z,8.00
2022-12-12T18:08:51.114Z,8.30
2022-12-12T18:11:24.466Z,8.00
2022-12-12T18:13:53.746Z,8.10
2022-12-12T18:16:23.539Z,8.40
2022-12-12T18:18:58.333Z,8.20
2022-12-12T18:21:59.267Z,8.50
2022-12-12T18:24:17.041Z,8.80
2022-12-12T18:26:47.572Z,8.50
2022-12-12T18:29:15.482Z,8.20
2022-12-12T18:31:43.420Z,8.00
2022-12-12T18:34:14.416Z,7.70
2022-12-12T18:36:49.274Z,8.30
2022-12-12T18:39:25.008Z,8.60
2022-12-12T18:41:54.290Z,8.00
2022-12-12T18:44:22.919Z,7.20
2022-12-12T18:46:51.654Z,6.90
2022-12-12T18:49:19.718Z,7.30
2022-12-12T18:51:50.436Z,7.90
2022-12-12T18:54:26.739Z,8.40
2022-12-12T18:57:01.341Z,8.70
2022-12-12T18:59:29.299Z,8.60
2022-12-12T19:01:57.220Z,8.80
2022-12-12T19:04:31.381Z,9.10
2022-12-12T19:07:05.409Z,8.80
2022-12-12T19:09:42.568Z,8.20
2022-12-12T19:12:12.006Z,7.80
2022-12-12T19:15:08.110Z,7.80
2022-12-12T19:17:30.832Z,8.30
2022-12-12T19:19:58.803Z,8.70
2022-12-12T19:22:45.046Z,8.40
2022-12-12T19:25:18.250Z,8.20
2022-12-12T19:27:47.548Z,7.90
2022-12-12T19:30:16.556Z,8.10
2022-12-12T19:32:50.745Z,8.40
2022-12-12T19:35:21.685Z,8.50
2022-12-12T19:37:49.552Z,8.60
2022-12-12T19:40:23.936Z,8.20
2022-12-12T19:42:55.496Z,7.70
2022-12-12T19:45:23.363Z,7.80
2022-12-12T19:47:51.252Z,8.20
2022-12-12T19:50:19.229Z,8.50
2022-12-12T19:52:50.248Z,8.70
2022-12-12T19:55:18.365Z,8.30
2022-12-12T19:57:46.239Z,8.00
2022-12-12T20:00:21.123Z,8.20
2022-12-12T20:02:49.083Z,7.70
2022-12-12T20:05:25.970Z,7.60
2022-12-12T20:07:57.438Z,8.10
2022-12-12T20:10:28.077Z,7.90
2022-12-12T20:12:58.677Z,7.70
2022-12-12T20:15:28.287Z,8.20
2022-12-12T20:18:00.019Z,8.60
2022-12-12T20:20:27.978Z,8.30
2022-12-12T20:22:55.828Z,8.40
2022-12-12T20:25:23.687Z,8.70
2022-12-12T20:27:54.307Z,8.30
2022-12-12T20:30:22.168Z,8.30
2022-12-12T20:32:51.390Z,8.70
2022-12-12T20:35:19.289Z,9.00
2022-12-12T20:37:47.156Z,9.00
2022-12-12T20:40:18.080Z,8.50
2022-12-12T20:42:55.974Z,8.40
2022-12-12T20:45:29.592Z,8.70
2022-12-12T20:48:03.016Z,8.40
2022-12-12T20:50:35.211Z,7.90
2022-12-12T20:53:09.247Z,8.20
2022-12-12T20:55:40.080Z,8.50
2022-12-12T20:58:07.954Z,8.80
2022-12-12T21:00:36.570Z,8.50
2022-12-12T21:03:13.663Z,8.00
2022-12-12T21:05:41.565Z,8.10
2022-12-12T21:08:12.313Z,8.30
2022-12-12T21:10:43.126Z,8.60
2022-12-12T21:13:13.309Z,8.80
2022-12-12T21:15:41.203Z,9.00
2022-12-12T21:18:13.250Z,9.20
2022-12-12T21:20:54.884Z,9.30
2022-12-12T21:23:25.550Z,8.90
2022-12-12T21:25:56.400Z,8.70
2022-12-12T21:28:30.697Z,8.40
2022-12-12T21:30:59.126Z,7.90
2022-12-12T21:33:31.146Z,7.20
2022-12-12T21:36:04.398Z,6.70
2022-12-12T21:38:35.412Z,6.30
2022-12-12T21:41:05.022Z,6.30
2022-12-12T21:43:36.754Z,7.00
2022-12-12T21:46:08.691Z,7.30
2022-12-12T21:48:38.510Z,7.10
2022-12-12T21:51:16.081Z,7.30
2022-12-12T21:53:44.406Z,7.70
2022-12-12T21:56:18.833Z,7.50
2022-12-12T21:58:47.519Z,7.20
2022-12-12T22:01:21.064Z,7.60
2022-12-12T22:03:50.584Z,7.80
2022-12-12T22:06:23.248Z,7.90
2022-12-12T22:08:51.455Z,8.10
2022-12-12T22:11:30.993Z,8.40
2022-12-12T22:14:10.936Z,8.40
2022-12-12T22:16:47.609Z,7.80
2022-12-12T22:19:22.074Z,8.10
2022-12-12T22:21:52.749Z,8.30
2022-12-12T22:24:27.086Z,7.80
2022-12-12T22:26:54.988Z,7.90
2022-12-12T22:29:22.964Z,8.20
2022-12-12T22:31:52.396Z,7.80
2022-12-12T22:34:23.282Z,7.90
2022-12-12T22:36:52.710Z,8.20
2022-12-12T22:39:23.319Z,8.50
2022-12-12T22:42:06.608Z,8.60
2022-12-12T22:44:40.502Z,8.80
2022-12-12T22:47:11.195Z,9.00
2022-12-12T22:49:40.471Z,9.00
2022-12-12T22:52:11.329Z,8.90
2022-12-12T22:54:39.385Z,8.90
2022-12-12T22:57:07.250Z,8.50
2022-12-12T22:59:38.211Z,7.80
2022-12-12T23:02:08.805Z,7.90
2022-12-12T23:04:41.243Z,8.10
2022-12-12T23:07:09.446Z,7.70
2022-12-12T23:09:37.512Z,7.70
2022-12-12T23:12:11.400Z,7.90
2022-12-12T23:14:39.287Z,7.70
2022-12-12T23:17:09.877Z,7.50
2022-12-12T23:19:42.258Z,7.60
2022-12-12T23:22:10.362Z,7.90
2022-12-12T23:24:38.664Z,7.60
2022-12-12T23:27:06.607Z,7.20
2022-12-12T23:29:34.505Z,7.50
2022-12-12T23:32:08.768Z,7.20
2022-12-12T23:34:36.817Z,6.80
2022-12-12T23:37:06.128Z,6.60
2022-12-12T23:39:34.082Z,7.00
2022-12-12T23:42:05.136Z,6.90
2022-12-12T23:44:33.202Z,6.50
2022-12-12T23:47:07.223Z,6.80
2022-12-12T23:49:35.220Z,7.20
2022-12-12T23:52:07.569Z,6.80
2022-12-12T23:54:35.862Z,6.60
2022-12-12T23:57:06.907Z,7.00
2022-12-12T23:59:34.784Z,7.20
